CA-0176 weather

CLOSED Johnson Point Airport
Northwest Territories, Canada

Public forecast

Using degrees Celsius for public forecast. Weather courtesy of forecast.io.

Closest aviation weather report (METAR) to Johnson Point Airport

Report is more than 2 hours old.

Closest report is Sachs Harbour (David Nasogaluak Jr. Saaryuaq) Airport, 131.0 nm (242.5 km) WSW. Retrieved 2020/07/06 23:00 UTC (4 hours ago):

CYSY 062300Z 35017KT 10SM BCFG BKN003TCU OVC013 04/03 A2999 RMK TCU6SC2 LAST STFD OBS/NEXT 071300Z SLP163

Closest aviation forecast (TAF) to Johnson Point Airport

Forecast is more than 6 hours old.

Closest forecast is Sachs Harbour (David Nasogaluak Jr. Saaryuaq) Airport, 131.0 nm (242.5 km) WSW. Retrieved 2020/07/06 19:00 UTC (8 hours ago):

TAF CYSY 061838Z 0619/0623 35015KT P6SM FEW004 BKN015 TEMPO 0619/0623 SCT015 BECMG 0619/0621 36018KT RMK NXT FCST WILL BE ISSUED AT 071445Z